Sanko Dynasty — V7EZ5 — position and weather

sailwx.info

Track history (hours):
 
Tides and Currents Weather Stations Pressure Air Temp Water Temp Dewpoint Dewpoint Depression Visibility Wind Speed Wind Dir Waves Ship Positions

Sanko Dynasty

Last reported at 2018-Feb-18 13:23 UTC. Time now 2018-Feb-22 15:13 UTC.
Position N 09°30' W 079°52'.

Length 240 m; draft 1.04 m.

Type: Tanker. MMSI: 538001883.

Date/timePositionNaut miles runAvg speedWind from/ knotsBaromVisibWave heightAir tempDewpointWater temp
2018-Feb-18 13:23N 09°30' W 079°52'3 9.1
2018-Feb-18 13:00N 09°28' W 079°54'4 7.8
2018-Feb-18 12:30N 09°24' W 079°55'2 3.1
2018-Feb-18 11:58N 09°23' W 079°56'0 0.1
2018-Feb-18 11:28N 09°23' W 079°56'0 0.0
2018-Feb-18 10:58N 09°23' W 079°56'0 0.1
2018-Feb-18 10:28N 09°23' W 079°56'0 0.0
2018-Feb-18 09:58N 09°23' W 079°56'0 0.0
2018-Feb-18 09:28N 09°23' W 079°56'0 0.0
2018-Feb-18 08:55N 09°23' W 079°56'0 0.0
2018-Feb-18 08:28N 09°23' W 079°56'0 0.0
2018-Feb-18 07:58N 09°23' W 079°56'0 0.0
2018-Feb-18 07:28N 09°23' W 079°56'0 0.0
2018-Feb-18 06:58N 09°23' W 079°56'0 0.0
2018-Feb-18 06:28N 09°23' W 079°56'0 0.0
2018-Feb-18 05:55N 09°23' W 079°56'0 0.0
2018-Feb-18 05:28N 09°23' W 079°56'0 0.0
2018-Feb-18 04:58N 09°23' W 079°56'0 0.0
2018-Feb-18 04:28N 09°23' W 079°56'0 0.0
2018-Feb-18 03:58N 09°23' W 079°56'0 0.0
2018-Feb-18 03:28N 09°23' W 079°56'0 0.0
2018-Feb-18 02:58N 09°23' W 079°56'0 0.0
2018-Feb-18 02:28N 09°23' W 079°56'0 0.0
2018-Feb-18 01:58N 09°23' W 079°56'0 0.0
2018-Feb-18 01:28N 09°23' W 079°56'0 0.0
2018-Feb-18 00:55N 09°23' W 079°56'0 0.0
2018-Feb-18 00:28N 09°23' W 079°56'0 0.0
2018-Feb-17 23:58N 09°23' W 079°56'0 0.0
2018-Feb-17 23:28N 09°23' W 079°56'0 0.0
2018-Feb-17 22:58N 09°23' W 079°56'0 0.0
2018-Feb-17 22:28N 09°23' W 079°56'0 0.1
2018-Feb-17 21:58N 09°23' W 079°56'0 0.0
2018-Feb-17 21:30N 09°23' W 079°56'1 1.2
2018-Feb-17 21:00N 09°22' W 079°55'3 5.0
2018-Feb-17 20:30N 09°20' W 079°55'3 5.4
2018-Feb-17 20:00N 09°17' W 079°55'0 0.7
2018-Feb-17 19:30N 09°17' W 079°55'0 0.3
2018-Feb-17 19:00N 09°16' W 079°55'0 0.3
2018-Feb-17 18:29N 09°16' W 079°55'0 0.2
2018-Feb-17 18:00N 09°16' W 079°55'0 0.8
2018-Feb-17 17:29N 09°16' W 079°55'1 2.5
2018-Feb-17 17:00N 09°15' W 079°55'  
Track history (hours):
 
Tides and Currents Weather Stations Pressure Air Temp Water Temp Dewpoint Dewpoint Depression Visibility Wind Speed Wind Dir Waves Ship Positions

Sanko Dynasty

Last reported at 2018-Feb-18 13:23 UTC. Time now 2018-Feb-22 15:13 UTC.
Position N 09°30' W 079°52'.

Length 240 m; draft 1.04 m.

Type: Tanker. MMSI: 538001883.

Date/timePositionNaut miles runAvg speedWind from/ knotsBaromVisibWave heightAir tempDewpointWater temp
2018-Feb-18 13:23N 09°30' W 079°52'3 9.1
2018-Feb-18 13:00N 09°28' W 079°54'4 7.8
2018-Feb-18 12:30N 09°24' W 079°55'2 3.1
2018-Feb-18 11:58N 09°23' W 079°56'0 0.1
2018-Feb-18 11:28N 09°23' W 079°56'0 0.0
2018-Feb-18 10:58N 09°23' W 079°56'0 0.1
2018-Feb-18 10:28N 09°23' W 079°56'0 0.0
2018-Feb-18 09:58N 09°23' W 079°56'0 0.0
2018-Feb-18 09:28N 09°23' W 079°56'0 0.0
2018-Feb-18 08:55N 09°23' W 079°56'0 0.0
2018-Feb-18 08:28N 09°23' W 079°56'0 0.0
2018-Feb-18 07:58N 09°23' W 079°56'0 0.0
2018-Feb-18 07:28N 09°23' W 079°56'0 0.0
2018-Feb-18 06:58N 09°23' W 079°56'0 0.0
2018-Feb-18 06:28N 09°23' W 079°56'0 0.0
2018-Feb-18 05:55N 09°23' W 079°56'0 0.0
2018-Feb-18 05:28N 09°23' W 079°56'0 0.0
2018-Feb-18 04:58N 09°23' W 079°56'0 0.0
2018-Feb-18 04:28N 09°23' W 079°56'0 0.0
2018-Feb-18 03:58N 09°23' W 079°56'0 0.0
2018-Feb-18 03:28N 09°23' W 079°56'0 0.0
2018-Feb-18 02:58N 09°23' W 079°56'0 0.0
2018-Feb-18 02:28N 09°23' W 079°56'0 0.0
2018-Feb-18 01:58N 09°23' W 079°56'0 0.0
2018-Feb-18 01:28N 09°23' W 079°56'0 0.0
2018-Feb-18 00:55N 09°23' W 079°56'0 0.0
2018-Feb-18 00:28N 09°23' W 079°56'0 0.0
2018-Feb-17 23:58N 09°23' W 079°56'0 0.0
2018-Feb-17 23:28N 09°23' W 079°56'0 0.0
2018-Feb-17 22:58N 09°23' W 079°56'0 0.0
2018-Feb-17 22:28N 09°23' W 079°56'0 0.1
2018-Feb-17 21:58N 09°23' W 079°56'0 0.0
2018-Feb-17 21:30N 09°23' W 079°56'1 1.2
2018-Feb-17 21:00N 09°22' W 079°55'3 5.0
2018-Feb-17 20:30N 09°20' W 079°55'3 5.4
2018-Feb-17 20:00N 09°17' W 079°55'0 0.7
2018-Feb-17 19:30N 09°17' W 079°55'0 0.3
2018-Feb-17 19:00N 09°16' W 079°55'0 0.3
2018-Feb-17 18:29N 09°16' W 079°55'0 0.2
2018-Feb-17 18:00N 09°16' W 079°55'0 0.8
2018-Feb-17 17:29N 09°16' W 079°55'1 2.5
2018-Feb-17 17:00N 09°15' W 079°55'  

Dump ship's entire track history